sensor_id;sensor_type;location;lat;lon;timestamp;P1;durP1;ratioP1;P2;durP2;ratioP2
61144;SDS011;47026;51.208;3.288;2023-01-15T00:00:58;9.45;;;1.95;;
61144;SDS011;47026;51.208;3.288;2023-01-15T00:03:24;5.95;;;1.40;;
61144;SDS011;47026;51.208;3.288;2023-01-15T00:05:50;13.85;;;3.12;;
61144;SDS011;47026;51.208;3.288;2023-01-15T00:10:42;12.65;;;2.42;;
61144;SDS011;47026;51.208;3.288;2023-01-15T00:13:08;6.20;;;1.45;;
61144;SDS011;47026;51.208;3.288;2023-01-15T00:15:34;12.10;;;1.90;;
61144;SDS011;47026;51.208;3.288;2023-01-15T00:20:26;6.03;;;1.40;;
61144;SDS011;47026;51.208;3.288;2023-01-15T00:22:52;6.45;;;1.45;;
61144;SDS011;47026;51.208;3.288;2023-01-15T00:28:02;7.53;;;2.97;;
61144;SDS011;47026;51.208;3.288;2023-01-15T00:32:54;7.15;;;1.65;;
61144;SDS011;47026;51.208;3.288;2023-01-15T00:35:22;7.45;;;1.40;;
61144;SDS011;47026;51.208;3.288;2023-01-15T00:37:48;9.90;;;1.62;;
61144;SDS011;47026;51.208;3.288;2023-01-15T00:40:15;8.93;;;1.60;;
61144;SDS011;47026;51.208;3.288;2023-01-15T00:42:42;4.93;;;1.10;;
61144;SDS011;47026;51.208;3.288;2023-01-15T00:47:38;9.60;;;1.50;;
61144;SDS011;47026;51.208;3.288;2023-01-15T00:50:07;4.15;;;1.25;;
61144;SDS011;47026;51.208;3.288;2023-01-15T00:52:38;8.50;;;1.83;;
61144;SDS011;47026;51.208;3.288;2023-01-15T00:55:04;7.43;;;1.60;;
61144;SDS011;47026;51.208;3.288;2023-01-15T00:57:32;5.10;;;1.30;;
61144;SDS011;47026;51.208;3.288;2023-01-15T00:59:58;9.18;;;1.83;;
61144;SDS011;47026;51.208;3.288;2023-01-15T01:04:49;7.60;;;1.73;;
61144;SDS011;47026;51.208;3.288;2023-01-15T01:09:42;10.68;;;1.80;;
61144;SDS011;47026;51.208;3.288;2023-01-15T01:12:09;9.80;;;1.48;;
61144;SDS011;47026;51.208;3.288;2023-01-15T01:17:01;4.13;;;1.53;;
61144;SDS011;47026;51.208;3.288;2023-01-15T01:21:53;7.12;;;1.58;;
61144;SDS011;47026;51.208;3.288;2023-01-15T01:24:20;4.65;;;1.33;;
61144;SDS011;47026;51.208;3.288;2023-01-15T01:26:47;7.28;;;1.75;;
61144;SDS011;47026;51.208;3.288;2023-01-15T01:29:14;7.25;;;1.35;;
61144;SDS011;47026;51.208;3.288;2023-01-15T01:31:42;10.88;;;2.72;;
61144;SDS011;47026;51.208;3.288;2023-01-15T01:34:08;5.80;;;1.87;;
61144;SDS011;47026;51.208;3.288;2023-01-15T01:36:36;6.85;;;1.50;;
61144;SDS011;47026;51.208;3.288;2023-01-15T01:39:04;7.72;;;1.42;;
61144;SDS011;47026;51.208;3.288;2023-01-15T01:41:31;12.45;;;1.92;;
61144;SDS011;47026;51.208;3.288;2023-01-15T01:44:02;4.15;;;1.30;;
61144;SDS011;47026;51.208;3.288;2023-01-15T01:46:31;8.38;;;1.73;;
61144;SDS011;47026;51.208;3.288;2023-01-15T01:49:08;4.47;;;1.45;;
61144;SDS011;47026;51.208;3.288;2023-01-15T01:51:38;4.80;;;1.40;;
61144;SDS011;47026;51.208;3.288;2023-01-15T01:54:07;5.62;;;1.40;;
61144;SDS011;47026;51.208;3.288;2023-01-15T01:56:35;3.97;;;1.02;;
61144;SDS011;47026;51.208;3.288;2023-01-15T01:59:02;8.48;;;1.80;;
61144;SDS011;47026;51.208;3.288;2023-01-15T02:01:30;5.10;;;1.77;;
61144;SDS011;47026;51.208;3.288;2023-01-15T02:06:22;7.28;;;1.40;;
61144;SDS011;47026;51.208;3.288;2023-01-15T02:08:51;7.05;;;1.10;;
61144;SDS011;47026;51.208;3.288;2023-01-15T02:11:21;6.78;;;1.25;;
61144;SDS011;47026;51.208;3.288;2023-01-15T02:16:39;8.85;;;1.67;;
61144;SDS011;47026;51.208;3.288;2023-01-15T02:19:27;8.05;;;1.50;;
61144;SDS011;47026;51.208;3.288;2023-01-15T02:27:29;8.60;;;1.37;;
61144;SDS011;47026;51.208;3.288;2023-01-15T02:32:49;4.00;;;1.40;;
61144;SDS011;47026;51.208;3.288;2023-01-15T02:37:53;6.45;;;1.52;;
61144;SDS011;47026;51.208;3.288;2023-01-15T02:40:23;7.70;;;1.37;;
61144;SDS011;47026;51.208;3.288;2023-01-15T02:42:50;4.90;;;1.00;;
61144;SDS011;47026;51.208;3.288;2023-01-15T02:45:20;7.65;;;1.20;;
61144;SDS011;47026;51.208;3.288;2023-01-15T02:47:51;6.05;;;1.80;;
61144;SDS011;47026;51.208;3.288;2023-01-15T02:50:21;9.93;;;1.52;;
61144;SDS011;47026;51.208;3.288;2023-01-15T02:52:53;10.52;;;1.17;;
61144;SDS011;47026;51.208;3.288;2023-01-15T02:55:25;4.12;;;1.20;;
61144;SDS011;47026;51.208;3.288;2023-01-15T02:57:58;6.70;;;1.70;;
61144;SDS011;47026;51.208;3.288;2023-01-15T03:00:28;4.82;;;1.10;;
61144;SDS011;47026;51.208;3.288;2023-01-15T03:03:13;9.13;;;1.30;;
61144;SDS011;47026;51.208;3.288;2023-01-15T03:05:56;3.90;;;1.30;;
61144;SDS011;47026;51.208;3.288;2023-01-15T03:08:24;7.68;;;1.25;;
61144;SDS011;47026;51.208;3.288;2023-01-15T03:11:33;3.50;;;1.10;;
61144;SDS011;47026;51.208;3.288;2023-01-15T03:13:48;6.47;;;1.35;;
61144;SDS011;47026;51.208;3.288;2023-01-15T03:16:34;4.87;;;1.73;;
61144;SDS011;47026;51.208;3.288;2023-01-15T03:19:08;6.03;;;1.10;;
61144;SDS011;47026;51.208;3.288;2023-01-15T03:21:56;6.22;;;1.30;;
61144;SDS011;47026;51.208;3.288;2023-01-15T03:24:28;7.03;;;1.40;;
61144;SDS011;47026;51.208;3.288;2023-01-15T03:27:03;7.97;;;1.83;;
61144;SDS011;47026;51.208;3.288;2023-01-15T03:31:57;9.68;;;1.75;;
61144;SDS011;47026;51.208;3.288;2023-01-15T03:34:25;7.90;;;1.30;;
61144;SDS011;47026;51.208;3.288;2023-01-15T03:36:57;5.18;;;1.30;;
61144;SDS011;47026;51.208;3.288;2023-01-15T03:44:43;8.80;;;1.45;;
61144;SDS011;47026;51.208;3.288;2023-01-15T03:52:43;6.70;;;1.67;;
61144;SDS011;47026;51.208;3.288;2023-01-15T03:57:58;10.82;;;1.80;;
61144;SDS011;47026;51.208;3.288;2023-01-15T04:00:31;7.53;;;1.55;;
61144;SDS011;47026;51.208;3.288;2023-01-15T04:03:01;11.23;;;1.58;;
61144;SDS011;47026;51.208;3.288;2023-01-15T04:05:31;9.65;;;1.42;;
61144;SDS011;47026;51.208;3.288;2023-01-15T04:07:58;5.62;;;1.10;;
61144;SDS011;47026;51.208;3.288;2023-01-15T04:10:25;6.15;;;1.30;;
61144;SDS011;47026;51.208;3.288;2023-01-15T04:15:17;7.32;;;1.48;;
61144;SDS011;47026;51.208;3.288;2023-01-15T04:17:43;5.70;;;1.20;;
61144;SDS011;47026;51.208;3.288;2023-01-15T04:22:36;10.18;;;2.95;;
61144;SDS011;47026;51.208;3.288;2023-01-15T04:25:02;3.45;;;0.75;;
61144;SDS011;47026;51.208;3.288;2023-01-15T04:27:29;9.25;;;1.60;;
61144;SDS011;47026;51.208;3.288;2023-01-15T04:32:21;9.27;;;1.75;;
61144;SDS011;47026;51.208;3.288;2023-01-15T04:34:47;9.75;;;1.30;;
61144;SDS011;47026;51.208;3.288;2023-01-15T04:37:14;4.97;;;1.25;;
61144;SDS011;47026;51.208;3.288;2023-01-15T04:39:41;6.78;;;1.67;;
61144;SDS011;47026;51.208;3.288;2023-01-15T04:42:11;7.62;;;1.20;;
61144;SDS011;47026;51.208;3.288;2023-01-15T04:44:56;4.60;;;1.67;;
61144;SDS011;47026;51.208;3.288;2023-01-15T04:49:48;7.18;;;1.23;;
61144;SDS011;47026;51.208;3.288;2023-01-15T04:52:14;4.80;;;1.00;;
61144;SDS011;47026;51.208;3.288;2023-01-15T04:57:06;10.98;;;1.75;;
61144;SDS011;47026;51.208;3.288;2023-01-15T05:01:57;10.48;;;1.40;;
61144;SDS011;47026;51.208;3.288;2023-01-15T05:04:23;5.75;;;1.25;;
61144;SDS011;47026;51.208;3.288;2023-01-15T05:06:50;6.07;;;1.42;;
61144;SDS011;47026;51.208;3.288;2023-01-15T05:09:17;5.50;;;1.52;;
61144;SDS011;47026;51.208;3.288;2023-01-15T05:14:09;11.93;;;1.52;;
61144;SDS011;47026;51.208;3.288;2023-01-15T05:16:34;7.12;;;1.20;;
61144;SDS011;47026;51.208;3.288;2023-01-15T05:19:02;6.18;;;1.60;;
61144;SDS011;47026;51.208;3.288;2023-01-15T05:21:32;7.30;;;1.40;;
61144;SDS011;47026;51.208;3.288;2023-01-15T05:24:00;5.90;;;1.00;;
61144;SDS011;47026;51.208;3.288;2023-01-15T05:26:32;5.05;;;1.00;;
61144;SDS011;47026;51.208;3.288;2023-01-15T05:28:59;6.93;;;1.30;;
61144;SDS011;47026;51.208;3.288;2023-01-15T05:31:26;10.30;;;1.30;;
61144;SDS011;47026;51.208;3.288;2023-01-15T05:33:53;4.22;;;1.70;;
61144;SDS011;47026;51.208;3.288;2023-01-15T05:36:21;5.72;;;1.30;;
61144;SDS011;47026;51.208;3.288;2023-01-15T05:38:48;5.45;;;1.23;;
61144;SDS011;47026;51.208;3.288;2023-01-15T05:44:01;6.37;;;1.10;;
61144;SDS011;47026;51.208;3.288;2023-01-15T05:46:32;9.68;;;1.75;;
61144;SDS011;47026;51.208;3.288;2023-01-15T05:48:59;4.00;;;1.20;;
61144;SDS011;47026;51.208;3.288;2023-01-15T05:51:26;4.18;;;1.40;;
61144;SDS011;47026;51.208;3.288;2023-01-15T05:53:52;9.88;;;1.75;;
61144;SDS011;47026;51.208;3.288;2023-01-15T05:56:19;3.72;;;0.93;;
61144;SDS011;47026;51.208;3.288;2023-01-15T06:01:11;5.15;;;1.08;;
61144;SDS011;47026;51.208;3.288;2023-01-15T06:03:37;4.87;;;1.00;;
61144;SDS011;47026;51.208;3.288;2023-01-15T06:06:03;3.42;;;0.93;;
61144;SDS011;47026;51.208;3.288;2023-01-15T06:08:29;7.97;;;1.30;;
61144;SDS011;47026;51.208;3.288;2023-01-15T06:13:20;6.15;;;1.55;;
61144;SDS011;47026;51.208;3.288;2023-01-15T06:15:47;5.43;;;1.10;;
61144;SDS011;47026;51.208;3.288;2023-01-15T06:20:39;11.25;;;1.15;;
61144;SDS011;47026;51.208;3.288;2023-01-15T06:23:06;6.62;;;1.00;;
61144;SDS011;47026;51.208;3.288;2023-01-15T06:25:33;7.18;;;1.55;;
61144;SDS011;47026;51.208;3.288;2023-01-15T06:28:01;8.88;;;1.85;;
61144;SDS011;47026;51.208;3.288;2023-01-15T06:30:28;6.43;;;1.33;;
61144;SDS011;47026;51.208;3.288;2023-01-15T06:35:19;7.57;;;1.27;;
61144;SDS011;47026;51.208;3.288;2023-01-15T06:37:47;8.15;;;1.02;;
61144;SDS011;47026;51.208;3.288;2023-01-15T06:40:13;7.47;;;1.20;;
61144;SDS011;47026;51.208;3.288;2023-01-15T06:45:24;6.78;;;1.35;;
61144;SDS011;47026;51.208;3.288;2023-01-15T06:48:09;5.78;;;1.00;;
61144;SDS011;47026;51.208;3.288;2023-01-15T06:53:00;3.80;;;0.90;;
61144;SDS011;47026;51.208;3.288;2023-01-15T06:55:26;4.87;;;1.00;;
61144;SDS011;47026;51.208;3.288;2023-01-15T07:00:18;3.03;;;1.20;;
61144;SDS011;47026;51.208;3.288;2023-01-15T07:05:10;6.22;;;1.30;;
61144;SDS011;47026;51.208;3.288;2023-01-15T07:10:01;4.43;;;1.00;;
61144;SDS011;47026;51.208;3.288;2023-01-15T07:12:27;7.43;;;1.35;;
61144;SDS011;47026;51.208;3.288;2023-01-15T07:14:54;5.15;;;1.30;;
61144;SDS011;47026;51.208;3.288;2023-01-15T07:19:46;4.97;;;1.35;;
61144;SDS011;47026;51.208;3.288;2023-01-15T07:22:12;7.75;;;1.50;;
61144;SDS011;47026;51.208;3.288;2023-01-15T07:24:37;1.75;;;0.70;;
61144;SDS011;47026;51.208;3.288;2023-01-15T07:27:03;5.85;;;1.50;;
61144;SDS011;47026;51.208;3.288;2023-01-15T07:29:30;9.57;;;1.42;;
61144;SDS011;47026;51.208;3.288;2023-01-15T07:31:56;3.53;;;1.33;;
61144;SDS011;47026;51.208;3.288;2023-01-15T07:36:47;5.00;;;1.10;;
61144;SDS011;47026;51.208;3.288;2023-01-15T07:39:13;6.40;;;1.23;;
61144;SDS011;47026;51.208;3.288;2023-01-15T07:41:40;6.25;;;1.27;;
61144;SDS011;47026;51.208;3.288;2023-01-15T07:44:24;8.80;;;1.23;;
61144;SDS011;47026;51.208;3.288;2023-01-15T07:47:13;5.82;;;1.05;;
61144;SDS011;47026;51.208;3.288;2023-01-15T07:50:01;8.20;;;1.87;;
61144;SDS011;47026;51.208;3.288;2023-01-15T07:52:28;7.80;;;1.35;;
61144;SDS011;47026;51.208;3.288;2023-01-15T07:54:54;8.18;;;3.25;;
61144;SDS011;47026;51.208;3.288;2023-01-15T07:57:20;7.22;;;1.45;;
61144;SDS011;47026;51.208;3.288;2023-01-15T07:59:47;13.10;;;2.05;;
61144;SDS011;47026;51.208;3.288;2023-01-15T08:02:14;7.97;;;2.12;;
61144;SDS011;47026;51.208;3.288;2023-01-15T08:04:39;6.82;;;1.60;;
61144;SDS011;47026;51.208;3.288;2023-01-15T08:07:05;5.85;;;1.35;;
61144;SDS011;47026;51.208;3.288;2023-01-15T08:09:32;6.78;;;1.50;;
61144;SDS011;47026;51.208;3.288;2023-01-15T08:11:59;10.55;;;1.62;;
61144;SDS011;47026;51.208;3.288;2023-01-15T08:14:45;5.07;;;1.20;;
61144;SDS011;47026;51.208;3.288;2023-01-15T08:17:29;12.43;;;2.33;;
61144;SDS011;47026;51.208;3.288;2023-01-15T08:19:57;5.95;;;1.25;;
61144;SDS011;47026;51.208;3.288;2023-01-15T08:24:49;4.55;;;1.20;;
61144;SDS011;47026;51.208;3.288;2023-01-15T08:27:14;4.50;;;1.30;;
61144;SDS011;47026;51.208;3.288;2023-01-15T08:32:06;7.43;;;1.60;;
61144;SDS011;47026;51.208;3.288;2023-01-15T08:34:32;10.23;;;2.03;;
61144;SDS011;47026;51.208;3.288;2023-01-15T08:39:27;5.03;;;1.17;;
61144;SDS011;47026;51.208;3.288;2023-01-15T08:41:53;7.05;;;1.50;;
61144;SDS011;47026;51.208;3.288;2023-01-15T08:44:20;6.22;;;1.60;;
61144;SDS011;47026;51.208;3.288;2023-01-15T08:46:47;5.28;;;1.40;;
61144;SDS011;47026;51.208;3.288;2023-01-15T08:49:14;8.15;;;1.42;;
61144;SDS011;47026;51.208;3.288;2023-01-15T08:54:05;13.40;;;1.70;;
61144;SDS011;47026;51.208;3.288;2023-01-15T08:56:31;9.07;;;1.50;;
61144;SDS011;47026;51.208;3.288;2023-01-15T08:59:02;6.72;;;1.45;;
61144;SDS011;47026;51.208;3.288;2023-01-15T09:01:29;8.75;;;1.77;;
61144;SDS011;47026;51.208;3.288;2023-01-15T09:06:22;12.13;;;2.37;;
61144;SDS011;47026;51.208;3.288;2023-01-15T09:11:13;8.35;;;1.48;;
61144;SDS011;47026;51.208;3.288;2023-01-15T09:13:39;7.45;;;1.50;;
61144;SDS011;47026;51.208;3.288;2023-01-15T09:16:05;9.15;;;1.62;;
61144;SDS011;47026;51.208;3.288;2023-01-15T09:18:31;6.35;;;1.30;;
61144;SDS011;47026;51.208;3.288;2023-01-15T09:20:58;11.45;;;1.60;;
61144;SDS011;47026;51.208;3.288;2023-01-15T09:25:50;6.45;;;1.58;;
61144;SDS011;47026;51.208;3.288;2023-01-15T09:28:20;9.23;;;1.58;;
61144;SDS011;47026;51.208;3.288;2023-01-15T09:30:46;6.18;;;1.70;;
61144;SDS011;47026;51.208;3.288;2023-01-15T09:33:13;9.20;;;1.70;;
61144;SDS011;47026;51.208;3.288;2023-01-15T09:38:04;5.35;;;1.17;;
61144;SDS011;47026;51.208;3.288;2023-01-15T09:45:54;5.50;;;1.20;;
61144;SDS011;47026;51.208;3.288;2023-01-15T09:48:32;3.08;;;1.00;;
61144;SDS011;47026;51.208;3.288;2023-01-15T09:57:14;5.20;;;1.08;;
61144;SDS011;47026;51.208;3.288;2023-01-15T09:59:44;5.40;;;1.37;;
61144;SDS011;47026;51.208;3.288;2023-01-15T10:02:23;5.32;;;1.20;;
61144;SDS011;47026;51.208;3.288;2023-01-15T10:04:53;6.65;;;1.20;;
61144;SDS011;47026;51.208;3.288;2023-01-15T10:07:32;7.47;;;1.42;;
61144;SDS011;47026;51.208;3.288;2023-01-15T10:10:03;6.37;;;1.23;;
61144;SDS011;47026;51.208;3.288;2023-01-15T10:12:35;3.40;;;0.80;;
61144;SDS011;47026;51.208;3.288;2023-01-15T10:15:26;5.25;;;1.37;;
61144;SDS011;47026;51.208;3.288;2023-01-15T10:18:25;6.12;;;1.40;;
61144;SDS011;47026;51.208;3.288;2023-01-15T10:26:16;7.23;;;1.57;;
61144;SDS011;47026;51.208;3.288;2023-01-15T10:29:05;5.80;;;1.10;;
61144;SDS011;47026;51.208;3.288;2023-01-15T10:34:33;4.75;;;1.25;;
61144;SDS011;47026;51.208;3.288;2023-01-15T10:37:17;3.17;;;1.20;;
61144;SDS011;47026;51.208;3.288;2023-01-15T10:42:49;6.68;;;1.27;;
61144;SDS011;47026;51.208;3.288;2023-01-15T10:45:21;2.87;;;1.67;;
61144;SDS011;47026;51.208;3.288;2023-01-15T10:48:20;7.25;;;1.90;;
61144;SDS011;47026;51.208;3.288;2023-01-15T10:51:40;4.78;;;1.05;;
61144;SDS011;47026;51.208;3.288;2023-01-15T11:02:19;6.00;;;1.55;;
61144;SDS011;47026;51.208;3.288;2023-01-15T11:04:46;5.03;;;1.27;;
61144;SDS011;47026;51.208;3.288;2023-01-15T11:07:12;11.23;;;1.58;;
61144;SDS011;47026;51.208;3.288;2023-01-15T11:14:38;4.65;;;1.52;;
61144;SDS011;47026;51.208;3.288;2023-01-15T11:17:28;9.77;;;1.98;;
61144;SDS011;47026;51.208;3.288;2023-01-15T11:20:29;9.80;;;2.53;;
61144;SDS011;47026;51.208;3.288;2023-01-15T11:23:08;8.27;;;2.05;;
61144;SDS011;47026;51.208;3.288;2023-01-15T11:25:35;5.97;;;1.60;;
61144;SDS011;47026;51.208;3.288;2023-01-15T11:28:08;5.00;;;1.62;;
61144;SDS011;47026;51.208;3.288;2023-01-15T11:30:39;7.10;;;1.45;;
61144;SDS011;47026;51.208;3.288;2023-01-15T11:33:27;6.97;;;1.52;;
61144;SDS011;47026;51.208;3.288;2023-01-15T11:35:56;3.05;;;1.65;;
61144;SDS011;47026;51.208;3.288;2023-01-15T11:38:26;6.12;;;1.23;;
61144;SDS011;47026;51.208;3.288;2023-01-15T11:40:55;3.62;;;1.17;;
61144;SDS011;47026;51.208;3.288;2023-01-15T11:43:24;3.25;;;1.10;;
61144;SDS011;47026;51.208;3.288;2023-01-15T11:46:27;7.32;;;1.17;;
61144;SDS011;47026;51.208;3.288;2023-01-15T11:49:15;5.60;;;1.92;;
61144;SDS011;47026;51.208;3.288;2023-01-15T11:52:04;4.07;;;1.42;;
61144;SDS011;47026;51.208;3.288;2023-01-15T11:54:41;2.28;;;1.20;;
61144;SDS011;47026;51.208;3.288;2023-01-15T11:57:09;7.65;;;2.00;;
61144;SDS011;47026;51.208;3.288;2023-01-15T11:59:36;2.62;;;0.98;;
61144;SDS011;47026;51.208;3.288;2023-01-15T12:04:48;4.85;;;1.52;;
61144;SDS011;47026;51.208;3.288;2023-01-15T12:07:22;6.20;;;1.10;;
61144;SDS011;47026;51.208;3.288;2023-01-15T12:10:10;5.93;;;1.15;;
61144;SDS011;47026;51.208;3.288;2023-01-15T12:17:43;4.90;;;1.42;;
61144;SDS011;47026;51.208;3.288;2023-01-15T12:25:57;4.53;;;1.12;;
61144;SDS011;47026;51.208;3.288;2023-01-15T12:28:53;8.57;;;1.27;;
61144;SDS011;47026;51.208;3.288;2023-01-15T12:31:32;7.03;;;1.87;;
61144;SDS011;47026;51.208;3.288;2023-01-15T12:34:14;8.23;;;1.52;;
61144;SDS011;47026;51.208;3.288;2023-01-15T12:36:53;7.35;;;2.60;;
61144;SDS011;47026;51.208;3.288;2023-01-15T12:42:39;6.78;;;2.10;;
61144;SDS011;47026;51.208;3.288;2023-01-15T12:45:33;5.90;;;1.55;;
61144;SDS011;47026;51.208;3.288;2023-01-15T12:48:15;6.80;;;1.37;;
61144;SDS011;47026;51.208;3.288;2023-01-15T12:53:19;8.23;;;1.45;;
61144;SDS011;47026;51.208;3.288;2023-01-15T12:55:50;6.72;;;1.40;;
61144;SDS011;47026;51.208;3.288;2023-01-15T13:01:20;6.93;;;1.50;;
61144;SDS011;47026;51.208;3.288;2023-01-15T13:04:14;7.05;;;1.90;;
61144;SDS011;47026;51.208;3.288;2023-01-15T13:06:48;5.80;;;2.10;;
61144;SDS011;47026;51.208;3.288;2023-01-15T13:11:52;8.18;;;1.62;;
61144;SDS011;47026;51.208;3.288;2023-01-15T13:19:52;3.28;;;1.10;;
61144;SDS011;47026;51.208;3.288;2023-01-15T13:22:30;5.25;;;1.37;;
61144;SDS011;47026;51.208;3.288;2023-01-15T13:25:22;3.12;;;1.27;;
61144;SDS011;47026;51.208;3.288;2023-01-15T13:33:36;3.97;;;1.12;;
61144;SDS011;47026;51.208;3.288;2023-01-15T13:36:17;8.63;;;1.45;;
61144;SDS011;47026;51.208;3.288;2023-01-15T13:38:54;3.80;;;1.30;;
61144;SDS011;47026;51.208;3.288;2023-01-15T13:41:26;2.95;;;1.08;;
61144;SDS011;47026;51.208;3.288;2023-01-15T13:44:17;3.05;;;1.35;;
61144;SDS011;47026;51.208;3.288;2023-01-15T13:47:02;4.30;;;1.10;;
61144;SDS011;47026;51.208;3.288;2023-01-15T13:49:34;4.25;;;1.80;;
61144;SDS011;47026;51.208;3.288;2023-01-15T13:52:03;7.12;;;2.97;;
61144;SDS011;47026;51.208;3.288;2023-01-15T13:54:32;6.82;;;2.45;;
61144;SDS011;47026;51.208;3.288;2023-01-15T13:57:08;5.72;;;1.62;;
61144;SDS011;47026;51.208;3.288;2023-01-15T13:59:47;12.80;;;4.18;;
61144;SDS011;47026;51.208;3.288;2023-01-15T14:02:28;9.73;;;2.10;;
61144;SDS011;47026;51.208;3.288;2023-01-15T14:04:54;3.90;;;1.48;;
61144;SDS011;47026;51.208;3.288;2023-01-15T14:07:34;7.07;;;2.35;;
61144;SDS011;47026;51.208;3.288;2023-01-15T14:10:35;6.43;;;1.45;;
61144;SDS011;47026;51.208;3.288;2023-01-15T14:18:34;1.65;;;1.52;;
61144;SDS011;47026;51.208;3.288;2023-01-15T14:32:36;4.20;;;1.92;;
61144;SDS011;47026;51.208;3.288;2023-01-15T14:35:20;8.15;;;2.05;;
61144;SDS011;47026;51.208;3.288;2023-01-15T14:37:49;9.43;;;2.65;;
61144;SDS011;47026;51.208;3.288;2023-01-15T14:40:20;6.43;;;2.33;;
61144;SDS011;47026;51.208;3.288;2023-01-15T14:42:50;8.10;;;2.40;;
61144;SDS011;47026;51.208;3.288;2023-01-15T14:45:34;5.57;;;2.40;;
61144;SDS011;47026;51.208;3.288;2023-01-15T14:48:04;9.15;;;1.80;;
61144;SDS011;47026;51.208;3.288;2023-01-15T14:50:51;3.25;;;1.42;;
61144;SDS011;47026;51.208;3.288;2023-01-15T14:56:19;6.82;;;2.55;;
61144;SDS011;47026;51.208;3.288;2023-01-15T14:59:07;5.07;;;1.50;;
61144;SDS011;47026;51.208;3.288;2023-01-15T15:07:02;5.65;;;2.30;;
61144;SDS011;47026;51.208;3.288;2023-01-15T15:20:42;4.75;;;1.60;;
61144;SDS011;47026;51.208;3.288;2023-01-15T15:25:55;5.50;;;1.58;;
61144;SDS011;47026;51.208;3.288;2023-01-15T15:28:21;2.53;;;1.90;;
61144;SDS011;47026;51.208;3.288;2023-01-15T15:30:47;3.65;;;1.48;;
61144;SDS011;47026;51.208;3.288;2023-01-15T15:33:18;6.90;;;1.73;;
61144;SDS011;47026;51.208;3.288;2023-01-15T15:35:50;4.62;;;1.40;;
61144;SDS011;47026;51.208;3.288;2023-01-15T15:38:19;5.07;;;1.58;;
61144;SDS011;47026;51.208;3.288;2023-01-15T15:40:54;3.47;;;1.75;;
61144;SDS011;47026;51.208;3.288;2023-01-15T15:43:41;3.87;;;1.37;;
61144;SDS011;47026;51.208;3.288;2023-01-15T15:46:36;3.45;;;1.33;;
61144;SDS011;47026;51.208;3.288;2023-01-15T15:49:20;4.95;;;1.27;;
61144;SDS011;47026;51.208;3.288;2023-01-15T15:51:48;2.15;;;1.08;;
61144;SDS011;47026;51.208;3.288;2023-01-15T15:56:46;6.43;;;1.35;;
61144;SDS011;47026;51.208;3.288;2023-01-15T15:59:35;3.33;;;1.60;;
61144;SDS011;47026;51.208;3.288;2023-01-15T16:07:26;5.82;;;1.58;;
61144;SDS011;47026;51.208;3.288;2023-01-15T16:12:48;2.45;;;1.52;;
61144;SDS011;47026;51.208;3.288;2023-01-15T16:15:26;9.97;;;2.37;;
61144;SDS011;47026;51.208;3.288;2023-01-15T16:17:54;3.12;;;1.80;;
61144;SDS011;47026;51.208;3.288;2023-01-15T16:20:22;5.65;;;2.00;;
61144;SDS011;47026;51.208;3.288;2023-01-15T16:22:59;6.95;;;2.97;;
61144;SDS011;47026;51.208;3.288;2023-01-15T16:25:39;4.45;;;1.40;;
61144;SDS011;47026;51.208;3.288;2023-01-15T16:28:17;5.00;;;2.20;;
61144;SDS011;47026;51.208;3.288;2023-01-15T16:30:54;6.28;;;1.40;;
61144;SDS011;47026;51.208;3.288;2023-01-15T16:33:23;5.82;;;2.08;;
61144;SDS011;47026;51.208;3.288;2023-01-15T16:35:54;9.15;;;2.50;;
61144;SDS011;47026;51.208;3.288;2023-01-15T16:38:22;4.35;;;1.55;;
61144;SDS011;47026;51.208;3.288;2023-01-15T16:43:15;3.62;;;1.30;;
61144;SDS011;47026;51.208;3.288;2023-01-15T16:46:00;2.95;;;1.40;;
61144;SDS011;47026;51.208;3.288;2023-01-15T16:48:34;2.65;;;1.00;;
61144;SDS011;47026;51.208;3.288;2023-01-15T16:51:27;5.78;;;2.00;;
61144;SDS011;47026;51.208;3.288;2023-01-15T16:53:56;4.30;;;1.60;;
61144;SDS011;47026;51.208;3.288;2023-01-15T16:59:00;1.58;;;1.05;;
61144;SDS011;47026;51.208;3.288;2023-01-15T17:01:33;3.78;;;1.50;;
61144;SDS011;47026;51.208;3.288;2023-01-15T17:04:01;3.53;;;1.55;;
61144;SDS011;47026;51.208;3.288;2023-01-15T17:06:28;3.22;;;1.50;;
61144;SDS011;47026;51.208;3.288;2023-01-15T17:08:55;2.55;;;1.00;;
61144;SDS011;47026;51.208;3.288;2023-01-15T17:11:27;3.17;;;1.33;;
61144;SDS011;47026;51.208;3.288;2023-01-15T17:16:44;2.35;;;1.12;;
61144;SDS011;47026;51.208;3.288;2023-01-15T17:21:35;5.85;;;2.00;;
61144;SDS011;47026;51.208;3.288;2023-01-15T17:24:06;2.80;;;2.20;;
61144;SDS011;47026;51.208;3.288;2023-01-15T17:26:33;1.83;;;1.25;;
61144;SDS011;47026;51.208;3.288;2023-01-15T17:28:59;3.78;;;1.48;;
61144;SDS011;47026;51.208;3.288;2023-01-15T17:31:26;4.53;;;1.92;;
61144;SDS011;47026;51.208;3.288;2023-01-15T17:33:54;1.75;;;1.10;;
61144;SDS011;47026;51.208;3.288;2023-01-15T17:36:21;1.12;;;1.00;;
61144;SDS011;47026;51.208;3.288;2023-01-15T17:38:48;2.70;;;1.05;;
61144;SDS011;47026;51.208;3.288;2023-01-15T17:41:16;2.30;;;0.85;;
61144;SDS011;47026;51.208;3.288;2023-01-15T17:43:44;0.93;;;0.82;;
61144;SDS011;47026;51.208;3.288;2023-01-15T17:46:10;1.10;;;0.80;;
61144;SDS011;47026;51.208;3.288;2023-01-15T17:48:36;1.37;;;0.98;;
61144;SDS011;47026;51.208;3.288;2023-01-15T17:51:03;2.17;;;0.98;;
61144;SDS011;47026;51.208;3.288;2023-01-15T17:53:31;0.73;;;0.60;;
61144;SDS011;47026;51.208;3.288;2023-01-15T17:56:00;3.33;;;1.15;;
61144;SDS011;47026;51.208;3.288;2023-01-15T17:58:45;4.87;;;1.85;;
61144;SDS011;47026;51.208;3.288;2023-01-15T18:01:29;2.40;;;1.20;;
61144;SDS011;47026;51.208;3.288;2023-01-15T18:07:36;4.35;;;1.65;;
61144;SDS011;47026;51.208;3.288;2023-01-15T18:10:05;7.20;;;1.95;;
61144;SDS011;47026;51.208;3.288;2023-01-15T18:12:33;4.72;;;2.40;;
61144;SDS011;47026;51.208;3.288;2023-01-15T18:14:59;4.62;;;2.08;;
61144;SDS011;47026;51.208;3.288;2023-01-15T18:17:25;3.33;;;1.65;;
61144;SDS011;47026;51.208;3.288;2023-01-15T18:19:52;4.53;;;2.35;;
61144;SDS011;47026;51.208;3.288;2023-01-15T18:24:44;5.35;;;1.52;;
61144;SDS011;47026;51.208;3.288;2023-01-15T18:27:10;5.50;;;2.47;;
61144;SDS011;47026;51.208;3.288;2023-01-15T18:29:36;8.43;;;2.95;;
61144;SDS011;47026;51.208;3.288;2023-01-15T18:32:04;6.30;;;2.78;;
61144;SDS011;47026;51.208;3.288;2023-01-15T18:34:32;3.90;;;3.00;;
61144;SDS011;47026;51.208;3.288;2023-01-15T18:36:58;5.20;;;2.40;;
61144;SDS011;47026;51.208;3.288;2023-01-15T18:39:23;5.28;;;2.50;;
61144;SDS011;47026;51.208;3.288;2023-01-15T18:41:49;7.82;;;2.78;;
61144;SDS011;47026;51.208;3.288;2023-01-15T18:44:16;3.08;;;1.85;;
61144;SDS011;47026;51.208;3.288;2023-01-15T18:47:03;3.40;;;1.12;;
61144;SDS011;47026;51.208;3.288;2023-01-15T18:49:35;2.17;;;1.08;;
61144;SDS011;47026;51.208;3.288;2023-01-15T18:54:45;1.70;;;1.45;;
61144;SDS011;47026;51.208;3.288;2023-01-15T18:59:36;3.90;;;2.28;;
61144;SDS011;47026;51.208;3.288;2023-01-15T19:02:03;5.10;;;1.95;;
61144;SDS011;47026;51.208;3.288;2023-01-15T19:04:29;2.83;;;1.50;;
61144;SDS011;47026;51.208;3.288;2023-01-15T19:09:20;4.12;;;2.53;;
61144;SDS011;47026;51.208;3.288;2023-01-15T19:11:48;5.45;;;2.97;;
61144;SDS011;47026;51.208;3.288;2023-01-15T19:14:15;6.07;;;3.15;;
61144;SDS011;47026;51.208;3.288;2023-01-15T19:17:00;8.68;;;4.55;;
61144;SDS011;47026;51.208;3.288;2023-01-15T19:19:44;4.60;;;3.05;;
61144;SDS011;47026;51.208;3.288;2023-01-15T19:24:54;5.15;;;3.30;;
61144;SDS011;47026;51.208;3.288;2023-01-15T19:27:21;32.28;;;6.30;;
61144;SDS011;47026;51.208;3.288;2023-01-15T19:32:12;8.88;;;5.55;;
61144;SDS011;47026;51.208;3.288;2023-01-15T19:34:38;7.05;;;3.85;;
61144;SDS011;47026;51.208;3.288;2023-01-15T19:39:30;8.18;;;3.70;;
61144;SDS011;47026;51.208;3.288;2023-01-15T19:41:56;3.95;;;3.00;;
61144;SDS011;47026;51.208;3.288;2023-01-15T19:44:41;7.87;;;3.90;;